map of MQY home
MQY - Airport
Location
City:  Smyrna, Tennessee, United States
ICAO:KMQY
IATA:MQY
FAA LID:MQY

Details
Type:Airport (Part 139 Class IV)
Use:Public/Civil
Latitude:3600'32"N (36.008972)
Longitude:8631'12"W (-86.520082)
Datum:WGS 1984
Elevation:543 ft (166 m)
Variation:3.94W (WMM2015 magnetic declination)
-0.08 annual change
Runways:2
Longest:8048 × 150 ft (2453 × 45.5 m), paved

Time
Time Zone:UTC-6 (DST-5)
Local Time:

Weather
METAR:KMQY 152056Z 23007KT 10SM CLR 04/M06 A3015 RMK AO2 SLP207 T00441056 56013
TAF:KMQY 151721Z 1518/1618 31009KT P6SM OVC035
FM151900 30007KT P6SM SKC
FM160000 24004KT P6SM SKC

Related Locations
Nearby:
Farthest:MQZ: 11211 mi / 18042 km
Margaret River [Margaret River Airport], WA, AU

Find:

   beyond  
but within

Other Information
Maps:
NOTAMs:
Links:
Sources:

  
flag of United States
flag of Tennessee
  

Airport Diagram

Airport diagram for MQY

Airport diagram PDF

Sectional Chart

Flight Planning
at skyvector.com

Satellite Image

Google Maps Satellite view

 

Copyright © 2004-2017 Karl L. Swartz. All rights reserved.
The Great Circle Mapper name and logo are trademarks of the Great Circle Mapper.
All other trademarks mentioned herein belong to their respective owners.
Please see credits for attibutions and further copyright information.

  Follow gcmap on Facebook Follow gcmap on Twitter Follow gcmap on Google+ GCmap on LinkedIn

hCard Microformat

Geo Microformat